sensor_id;sensor_type;location;lat;lon;timestamp;temperature;humidity
18613;DHT22;9436;52.152;21.032;2022-11-09T00:00:43;8.90;99.90
18613;DHT22;9436;52.152;21.032;2022-11-09T00:03:10;9.00;99.90
18613;DHT22;9436;52.152;21.032;2022-11-09T00:05:37;9.00;99.90
18613;DHT22;9436;52.152;21.032;2022-11-09T00:08:07;9.00;99.90
18613;DHT22;9436;52.152;21.032;2022-11-09T00:10:34;8.90;99.90
18613;DHT22;9436;52.152;21.032;2022-11-09T00:13:02;8.90;99.90
18613;DHT22;9436;52.152;21.032;2022-11-09T00:15:29;8.90;99.90
18613;DHT22;9436;52.152;21.032;2022-11-09T00:17:59;8.90;99.90
18613;DHT22;9436;52.152;21.032;2022-11-09T00:20:26;8.90;99.90
18613;DHT22;9436;52.152;21.032;2022-11-09T00:22:53;8.80;99.90
18613;DHT22;9436;52.152;21.032;2022-11-09T00:25:22;8.80;99.90
18613;DHT22;9436;52.152;21.032;2022-11-09T00:27:49;8.90;99.90
18613;DHT22;9436;52.152;21.032;2022-11-09T00:30:16;8.90;99.90
18613;DHT22;9436;52.152;21.032;2022-11-09T00:32:43;8.90;99.90
18613;DHT22;9436;52.152;21.032;2022-11-09T00:35:10;8.80;99.90
18613;DHT22;9436;52.152;21.032;2022-11-09T00:37:37;8.80;99.90
18613;DHT22;9436;52.152;21.032;2022-11-09T00:40:06;8.80;99.90
18613;DHT22;9436;52.152;21.032;2022-11-09T00:42:34;8.90;99.90
18613;DHT22;9436;52.152;21.032;2022-11-09T00:45:01;8.80;99.90
18613;DHT22;9436;52.152;21.032;2022-11-09T00:47:28;8.80;99.90
18613;DHT22;9436;52.152;21.032;2022-11-09T00:49:55;8.70;99.90
18613;DHT22;9436;52.152;21.032;2022-11-09T00:52:22;8.80;99.90
18613;DHT22;9436;52.152;21.032;2022-11-09T00:54:49;8.70;99.90
18613;DHT22;9436;52.152;21.032;2022-11-09T00:57:16;8.80;99.90
18613;DHT22;9436;52.152;21.032;2022-11-09T00:59:45;8.70;99.90
18613;DHT22;9436;52.152;21.032;2022-11-09T01:02:12;8.80;99.90
18613;DHT22;9436;52.152;21.032;2022-11-09T01:04:39;8.80;99.90
18613;DHT22;9436;52.152;21.032;2022-11-09T01:07:06;8.80;99.90
18613;DHT22;9436;52.152;21.032;2022-11-09T01:09:33;8.80;99.90
18613;DHT22;9436;52.152;21.032;2022-11-09T01:12:01;8.80;99.90
18613;DHT22;9436;52.152;21.032;2022-11-09T01:14:28;8.80;99.90
18613;DHT22;9436;52.152;21.032;2022-11-09T01:16:56;8.80;99.90
18613;DHT22;9436;52.152;21.032;2022-11-09T01:19:23;8.80;99.90
18613;DHT22;9436;52.152;21.032;2022-11-09T01:21:50;8.80;99.90
18613;DHT22;9436;52.152;21.032;2022-11-09T01:24:17;8.80;99.90
18613;DHT22;9436;52.152;21.032;2022-11-09T01:26:44;8.80;99.90
18613;DHT22;9436;52.152;21.032;2022-11-09T01:29:11;8.80;99.90
18613;DHT22;9436;52.152;21.032;2022-11-09T01:31:38;8.80;99.90
18613;DHT22;9436;52.152;21.032;2022-11-09T01:34:06;8.80;99.90
18613;DHT22;9436;52.152;21.032;2022-11-09T01:36:33;8.80;99.90
18613;DHT22;9436;52.152;21.032;2022-11-09T01:39:01;8.80;99.90
18613;DHT22;9436;52.152;21.032;2022-11-09T01:41:28;8.80;99.90
18613;DHT22;9436;52.152;21.032;2022-11-09T01:44:07;8.80;99.90
18613;DHT22;9436;52.152;21.032;2022-11-09T01:46:42;8.80;99.90
18613;DHT22;9436;52.152;21.032;2022-11-09T01:49:18;8.80;99.90
18613;DHT22;9436;52.152;21.032;2022-11-09T01:51:49;8.70;99.90
18613;DHT22;9436;52.152;21.032;2022-11-09T01:54:21;8.80;99.90
18613;DHT22;9436;52.152;21.032;2022-11-09T01:56:52;8.80;99.90
18613;DHT22;9436;52.152;21.032;2022-11-09T01:59:22;8.80;99.90
18613;DHT22;9436;52.152;21.032;2022-11-09T02:01:51;8.80;99.90
18613;DHT22;9436;52.152;21.032;2022-11-09T02:04:23;8.80;99.90
18613;DHT22;9436;52.152;21.032;2022-11-09T02:06:51;8.80;99.90
18613;DHT22;9436;52.152;21.032;2022-11-09T02:09:25;8.80;99.90
18613;DHT22;9436;52.152;21.032;2022-11-09T02:11:53;8.80;99.90
18613;DHT22;9436;52.152;21.032;2022-11-09T02:14:22;8.80;99.90
18613;DHT22;9436;52.152;21.032;2022-11-09T02:16:51;8.80;99.90
18613;DHT22;9436;52.152;21.032;2022-11-09T02:19:19;8.80;99.90
18613;DHT22;9436;52.152;21.032;2022-11-09T02:21:48;8.80;99.90
18613;DHT22;9436;52.152;21.032;2022-11-09T02:24:16;8.90;99.90
18613;DHT22;9436;52.152;21.032;2022-11-09T02:26:46;8.80;99.90
18613;DHT22;9436;52.152;21.032;2022-11-09T02:29:16;8.80;99.90
18613;DHT22;9436;52.152;21.032;2022-11-09T02:31:47;8.80;99.90
18613;DHT22;9436;52.152;21.032;2022-11-09T02:34:17;8.90;99.90
18613;DHT22;9436;52.152;21.032;2022-11-09T02:36:44;8.90;99.90
18613;DHT22;9436;52.152;21.032;2022-11-09T02:39:15;8.90;99.90
18613;DHT22;9436;52.152;21.032;2022-11-09T02:41:45;8.80;99.90
18613;DHT22;9436;52.152;21.032;2022-11-09T02:44:14;8.90;99.90
18613;DHT22;9436;52.152;21.032;2022-11-09T02:46:42;8.90;99.90
18613;DHT22;9436;52.152;21.032;2022-11-09T02:49:09;8.90;99.90
18613;DHT22;9436;52.152;21.032;2022-11-09T02:51:36;8.80;99.90
18613;DHT22;9436;52.152;21.032;2022-11-09T02:54:03;8.80;99.90
18613;DHT22;9436;52.152;21.032;2022-11-09T02:56:32;8.80;99.90
18613;DHT22;9436;52.152;21.032;2022-11-09T02:58:59;8.80;99.90
18613;DHT22;9436;52.152;21.032;2022-11-09T03:01:27;8.80;99.90
18613;DHT22;9436;52.152;21.032;2022-11-09T03:03:54;8.70;99.90
18613;DHT22;9436;52.152;21.032;2022-11-09T03:06:21;8.80;99.90
18613;DHT22;9436;52.152;21.032;2022-11-09T03:08:59;8.70;99.90
18613;DHT22;9436;52.152;21.032;2022-11-09T03:11:26;8.80;99.90
18613;DHT22;9436;52.152;21.032;2022-11-09T03:13:54;8.80;99.90
18613;DHT22;9436;52.152;21.032;2022-11-09T03:16:22;8.70;99.90
18613;DHT22;9436;52.152;21.032;2022-11-09T03:18:50;8.80;99.90
18613;DHT22;9436;52.152;21.032;2022-11-09T03:21:17;8.80;99.90
18613;DHT22;9436;52.152;21.032;2022-11-09T03:23:44;8.80;99.90
18613;DHT22;9436;52.152;21.032;2022-11-09T03:26:11;8.80;99.90
18613;DHT22;9436;52.152;21.032;2022-11-09T03:28:38;8.80;99.90
18613;DHT22;9436;52.152;21.032;2022-11-09T03:31:07;8.80;99.90
18613;DHT22;9436;52.152;21.032;2022-11-09T03:33:34;8.80;99.90
18613;DHT22;9436;52.152;21.032;2022-11-09T03:36:02;8.80;99.90
18613;DHT22;9436;52.152;21.032;2022-11-09T03:38:29;8.80;99.90
18613;DHT22;9436;52.152;21.032;2022-11-09T03:40:58;8.80;99.90
18613;DHT22;9436;52.152;21.032;2022-11-09T03:43:25;8.80;99.90
18613;DHT22;9436;52.152;21.032;2022-11-09T03:45:52;8.80;99.90
18613;DHT22;9436;52.152;21.032;2022-11-09T03:48:21;8.80;99.90
18613;DHT22;9436;52.152;21.032;2022-11-09T03:50:48;8.70;99.90
18613;DHT22;9436;52.152;21.032;2022-11-09T03:53:15;8.80;99.90
18613;DHT22;9436;52.152;21.032;2022-11-09T03:55:42;8.80;99.90
18613;DHT22;9436;52.152;21.032;2022-11-09T03:58:10;8.70;99.90
18613;DHT22;9436;52.152;21.032;2022-11-09T04:00:37;8.80;99.90
18613;DHT22;9436;52.152;21.032;2022-11-09T04:03:05;8.80;99.90
18613;DHT22;9436;52.152;21.032;2022-11-09T04:05:33;8.80;99.90
18613;DHT22;9436;52.152;21.032;2022-11-09T04:08:00;8.70;99.90
18613;DHT22;9436;52.152;21.032;2022-11-09T04:10:27;8.70;99.90
18613;DHT22;9436;52.152;21.032;2022-11-09T04:12:54;8.70;99.90
18613;DHT22;9436;52.152;21.032;2022-11-09T04:15:21;8.70;99.90
18613;DHT22;9436;52.152;21.032;2022-11-09T04:17:55;8.60;99.90
18613;DHT22;9436;52.152;21.032;2022-11-09T04:20:23;8.60;99.90
18613;DHT22;9436;52.152;21.032;2022-11-09T04:22:55;8.60;99.90
18613;DHT22;9436;52.152;21.032;2022-11-09T04:25:23;8.70;99.90
18613;DHT22;9436;52.152;21.032;2022-11-09T04:27:53;8.60;99.90
18613;DHT22;9436;52.152;21.032;2022-11-09T04:30:21;8.60;99.90
18613;DHT22;9436;52.152;21.032;2022-11-09T04:32:49;8.60;99.90
18613;DHT22;9436;52.152;21.032;2022-11-09T04:35:16;8.60;99.90
18613;DHT22;9436;52.152;21.032;2022-11-09T04:37:43;8.50;99.90
18613;DHT22;9436;52.152;21.032;2022-11-09T04:40:12;8.50;99.90
18613;DHT22;9436;52.152;21.032;2022-11-09T04:42:39;8.50;99.90
18613;DHT22;9436;52.152;21.032;2022-11-09T04:45:07;8.50;99.90
18613;DHT22;9436;52.152;21.032;2022-11-09T04:47:34;8.50;99.90
18613;DHT22;9436;52.152;21.032;2022-11-09T04:50:01;8.50;99.90
18613;DHT22;9436;52.152;21.032;2022-11-09T04:52:28;8.50;99.90
18613;DHT22;9436;52.152;21.032;2022-11-09T04:54:55;8.50;99.90
18613;DHT22;9436;52.152;21.032;2022-11-09T04:57:23;8.40;99.90
18613;DHT22;9436;52.152;21.032;2022-11-09T04:59:50;8.50;99.90
18613;DHT22;9436;52.152;21.032;2022-11-09T05:02:17;8.50;99.90
18613;DHT22;9436;52.152;21.032;2022-11-09T05:04:44;8.50;99.90
18613;DHT22;9436;52.152;21.032;2022-11-09T05:07:11;8.40;99.90
18613;DHT22;9436;52.152;21.032;2022-11-09T05:09:38;8.50;99.90
18613;DHT22;9436;52.152;21.032;2022-11-09T05:12:05;8.50;99.90
18613;DHT22;9436;52.152;21.032;2022-11-09T05:14:34;8.40;99.90
18613;DHT22;9436;52.152;21.032;2022-11-09T05:17:02;8.50;99.90
18613;DHT22;9436;52.152;21.032;2022-11-09T05:19:29;8.40;99.90
18613;DHT22;9436;52.152;21.032;2022-11-09T05:21:56;8.40;99.90
18613;DHT22;9436;52.152;21.032;2022-11-09T05:24:44;8.40;99.90
18613;DHT22;9436;52.152;21.032;2022-11-09T05:27:11;8.40;99.90
18613;DHT22;9436;52.152;21.032;2022-11-09T05:29:39;8.40;99.90
18613;DHT22;9436;52.152;21.032;2022-11-09T05:32:06;8.40;99.90
18613;DHT22;9436;52.152;21.032;2022-11-09T05:34:33;8.40;99.90
18613;DHT22;9436;52.152;21.032;2022-11-09T05:37:00;8.40;99.90
18613;DHT22;9436;52.152;21.032;2022-11-09T05:39:27;8.40;99.90
18613;DHT22;9436;52.152;21.032;2022-11-09T05:41:54;8.40;99.90
18613;DHT22;9436;52.152;21.032;2022-11-09T05:44:21;8.40;99.90
18613;DHT22;9436;52.152;21.032;2022-11-09T05:46:49;8.40;99.90
18613;DHT22;9436;52.152;21.032;2022-11-09T05:49:16;8.40;99.90
18613;DHT22;9436;52.152;21.032;2022-11-09T05:51:43;8.40;99.90
18613;DHT22;9436;52.152;21.032;2022-11-09T05:54:10;8.40;99.90
18613;DHT22;9436;52.152;21.032;2022-11-09T05:56:38;8.40;99.90
18613;DHT22;9436;52.152;21.032;2022-11-09T05:59:05;8.50;99.90
18613;DHT22;9436;52.152;21.032;2022-11-09T06:01:32;8.60;99.90
18613;DHT22;9436;52.152;21.032;2022-11-09T06:04:00;8.60;99.90
18613;DHT22;9436;52.152;21.032;2022-11-09T06:06:27;8.60;99.90
18613;DHT22;9436;52.152;21.032;2022-11-09T06:08:54;8.60;99.90
18613;DHT22;9436;52.152;21.032;2022-11-09T06:11:21;8.60;99.90
18613;DHT22;9436;52.152;21.032;2022-11-09T06:13:49;8.60;99.90
18613;DHT22;9436;52.152;21.032;2022-11-09T06:16:16;8.60;99.90
18613;DHT22;9436;52.152;21.032;2022-11-09T06:18:42;8.60;99.90
18613;DHT22;9436;52.152;21.032;2022-11-09T06:21:11;8.70;99.90
18613;DHT22;9436;52.152;21.032;2022-11-09T06:23:38;8.60;99.90
18613;DHT22;9436;52.152;21.032;2022-11-09T06:26:06;9.40;99.90
18613;DHT22;9436;52.152;21.032;2022-11-09T06:28:34;9.90;99.90
18613;DHT22;9436;52.152;21.032;2022-11-09T06:31:03;10.50;99.90
18613;DHT22;9436;52.152;21.032;2022-11-09T06:33:32;10.90;99.90
18613;DHT22;9436;52.152;21.032;2022-11-09T06:35:59;11.30;99.90
18613;DHT22;9436;52.152;21.032;2022-11-09T06:38:28;11.60;99.90
18613;DHT22;9436;52.152;21.032;2022-11-09T06:40:56;11.80;99.90
18613;DHT22;9436;52.152;21.032;2022-11-09T06:43:24;12.00;99.90
18613;DHT22;9436;52.152;21.032;2022-11-09T06:45:51;12.10;99.90
18613;DHT22;9436;52.152;21.032;2022-11-09T06:48:18;12.00;99.90
18613;DHT22;9436;52.152;21.032;2022-11-09T06:50:46;12.10;99.90
18613;DHT22;9436;52.152;21.032;2022-11-09T06:53:14;12.10;99.90
18613;DHT22;9436;52.152;21.032;2022-11-09T06:55:43;12.20;99.90
18613;DHT22;9436;52.152;21.032;2022-11-09T06:58:13;12.30;99.90
18613;DHT22;9436;52.152;21.032;2022-11-09T07:00:41;12.20;99.90
18613;DHT22;9436;52.152;21.032;2022-11-09T07:03:12;12.40;99.90
18613;DHT22;9436;52.152;21.032;2022-11-09T07:05:39;12.30;99.90
18613;DHT22;9436;52.152;21.032;2022-11-09T07:08:06;12.30;99.90
18613;DHT22;9436;52.152;21.032;2022-11-09T07:10:33;12.40;99.90
18613;DHT22;9436;52.152;21.032;2022-11-09T07:13:01;12.60;99.90
18613;DHT22;9436;52.152;21.032;2022-11-09T07:15:29;12.70;99.90
18613;DHT22;9436;52.152;21.032;2022-11-09T07:17:56;12.80;99.90
18613;DHT22;9436;52.152;21.032;2022-11-09T07:20:23;12.80;99.90
18613;DHT22;9436;52.152;21.032;2022-11-09T07:22:50;12.80;99.90
18613;DHT22;9436;52.152;21.032;2022-11-09T07:25:17;12.80;99.90
18613;DHT22;9436;52.152;21.032;2022-11-09T07:27:45;12.70;99.90
18613;DHT22;9436;52.152;21.032;2022-11-09T07:30:14;12.70;99.90
18613;DHT22;9436;52.152;21.032;2022-11-09T07:32:41;12.70;99.90
18613;DHT22;9436;52.152;21.032;2022-11-09T07:35:09;12.80;99.90
18613;DHT22;9436;52.152;21.032;2022-11-09T07:37:36;12.70;99.90
18613;DHT22;9436;52.152;21.032;2022-11-09T07:40:04;12.80;99.90
18613;DHT22;9436;52.152;21.032;2022-11-09T07:42:31;12.80;99.90
18613;DHT22;9436;52.152;21.032;2022-11-09T07:44:59;12.90;99.90
18613;DHT22;9436;52.152;21.032;2022-11-09T07:47:27;12.80;99.90
18613;DHT22;9436;52.152;21.032;2022-11-09T07:49:54;12.60;99.90
18613;DHT22;9436;52.152;21.032;2022-11-09T07:52:24;12.60;99.90
18613;DHT22;9436;52.152;21.032;2022-11-09T07:54:51;12.60;99.90
18613;DHT22;9436;52.152;21.032;2022-11-09T07:57:18;12.30;99.90
18613;DHT22;9436;52.152;21.032;2022-11-09T07:59:45;11.90;99.90
18613;DHT22;9436;52.152;21.032;2022-11-09T08:02:12;11.80;99.90
18613;DHT22;9436;52.152;21.032;2022-11-09T08:04:40;11.90;99.90
18613;DHT22;9436;52.152;21.032;2022-11-09T08:07:07;11.80;99.90
18613;DHT22;9436;52.152;21.032;2022-11-09T08:09:34;11.50;99.90
18613;DHT22;9436;52.152;21.032;2022-11-09T08:12:01;11.30;99.90
18613;DHT22;9436;52.152;21.032;2022-11-09T08:14:28;11.20;99.90
18613;DHT22;9436;52.152;21.032;2022-11-09T08:16:55;11.10;99.90
18613;DHT22;9436;52.152;21.032;2022-11-09T08:19:22;11.00;99.90
18613;DHT22;9436;52.152;21.032;2022-11-09T08:21:51;10.90;99.90
18613;DHT22;9436;52.152;21.032;2022-11-09T08:24:21;11.00;99.90
18613;DHT22;9436;52.152;21.032;2022-11-09T08:26:49;11.00;99.90
18613;DHT22;9436;52.152;21.032;2022-11-09T08:29:16;11.00;99.90
18613;DHT22;9436;52.152;21.032;2022-11-09T08:31:43;11.00;99.90
18613;DHT22;9436;52.152;21.032;2022-11-09T08:34:10;10.90;99.90
18613;DHT22;9436;52.152;21.032;2022-11-09T08:36:38;11.00;99.90
18613;DHT22;9436;52.152;21.032;2022-11-09T08:39:06;11.10;99.90
18613;DHT22;9436;52.152;21.032;2022-11-09T08:41:34;11.10;99.90
18613;DHT22;9436;52.152;21.032;2022-11-09T08:44:01;11.20;99.90
18613;DHT22;9436;52.152;21.032;2022-11-09T08:46:29;11.30;99.90
18613;DHT22;9436;52.152;21.032;2022-11-09T08:48:56;11.80;99.90
18613;DHT22;9436;52.152;21.032;2022-11-09T08:51:23;11.90;99.90
18613;DHT22;9436;52.152;21.032;2022-11-09T08:53:50;11.90;99.90
18613;DHT22;9436;52.152;21.032;2022-11-09T08:56:18;11.80;99.90
18613;DHT22;9436;52.152;21.032;2022-11-09T08:58:45;11.70;99.90
18613;DHT22;9436;52.152;21.032;2022-11-09T09:01:12;11.80;99.90
18613;DHT22;9436;52.152;21.032;2022-11-09T09:03:39;11.80;99.90
18613;DHT22;9436;52.152;21.032;2022-11-09T09:06:07;11.80;99.90
18613;DHT22;9436;52.152;21.032;2022-11-09T09:08:34;11.90;99.90
18613;DHT22;9436;52.152;21.032;2022-11-09T09:11:03;12.00;99.90
18613;DHT22;9436;52.152;21.032;2022-11-09T09:13:32;12.10;99.90
18613;DHT22;9436;52.152;21.032;2022-11-09T09:16:08;12.10;99.90
18613;DHT22;9436;52.152;21.032;2022-11-09T09:18:35;12.20;99.90
18613;DHT22;9436;52.152;21.032;2022-11-09T09:21:07;12.20;99.90
18613;DHT22;9436;52.152;21.032;2022-11-09T09:23:34;12.20;99.90
18613;DHT22;9436;52.152;21.032;2022-11-09T09:26:02;12.20;99.90
18613;DHT22;9436;52.152;21.032;2022-11-09T09:28:30;12.20;99.90
18613;DHT22;9436;52.152;21.032;2022-11-09T09:30:57;12.20;99.90
18613;DHT22;9436;52.152;21.032;2022-11-09T09:33:25;12.30;99.90
18613;DHT22;9436;52.152;21.032;2022-11-09T09:35:54;12.30;99.90
18613;DHT22;9436;52.152;21.032;2022-11-09T09:38:22;12.30;99.90
18613;DHT22;9436;52.152;21.032;2022-11-09T09:40:55;12.40;99.90
18613;DHT22;9436;52.152;21.032;2022-11-09T09:43:27;12.40;99.90
18613;DHT22;9436;52.152;21.032;2022-11-09T09:45:58;12.40;99.90
18613;DHT22;9436;52.152;21.032;2022-11-09T09:48:30;12.50;99.90
18613;DHT22;9436;52.152;21.032;2022-11-09T09:51:03;12.60;99.90
18613;DHT22;9436;52.152;21.032;2022-11-09T09:53:35;12.50;99.90
18613;DHT22;9436;52.152;21.032;2022-11-09T09:56:10;12.60;99.90
18613;DHT22;9436;52.152;21.032;2022-11-09T09:58:43;12.60;99.90
18613;DHT22;9436;52.152;21.032;2022-11-09T10:01:15;12.90;99.90
18613;DHT22;9436;52.152;21.032;2022-11-09T10:03:44;12.90;99.90
18613;DHT22;9436;52.152;21.032;2022-11-09T10:06:36;12.90;99.90
18613;DHT22;9436;52.152;21.032;2022-11-09T10:09:13;12.90;99.90
18613;DHT22;9436;52.152;21.032;2022-11-09T10:11:50;12.90;99.90
18613;DHT22;9436;52.152;21.032;2022-11-09T10:14:44;12.90;99.90
18613;DHT22;9436;52.152;21.032;2022-11-09T10:17:20;12.90;99.90
18613;DHT22;9436;52.152;21.032;2022-11-09T10:20:02;13.20;99.90
18613;DHT22;9436;52.152;21.032;2022-11-09T10:22:40;13.30;99.90
18613;DHT22;9436;52.152;21.032;2022-11-09T10:25:14;13.20;99.90
18613;DHT22;9436;52.152;21.032;2022-11-09T10:27:49;13.20;99.90
18613;DHT22;9436;52.152;21.032;2022-11-09T10:30:22;13.20;99.90
18613;DHT22;9436;52.152;21.032;2022-11-09T10:32:54;13.10;99.90
18613;DHT22;9436;52.152;21.032;2022-11-09T10:35:25;13.10;99.90
18613;DHT22;9436;52.152;21.032;2022-11-09T10:37:53;13.20;99.90
18613;DHT22;9436;52.152;21.032;2022-11-09T10:40:22;13.20;99.90
18613;DHT22;9436;52.152;21.032;2022-11-09T10:42:53;13.20;99.90
18613;DHT22;9436;52.152;21.032;2022-11-09T10:45:27;13.30;99.90
18613;DHT22;9436;52.152;21.032;2022-11-09T10:47:57;13.40;99.90
18613;DHT22;9436;52.152;21.032;2022-11-09T10:50:29;13.40;99.90
18613;DHT22;9436;52.152;21.032;2022-11-09T10:53:09;13.40;99.90
18613;DHT22;9436;52.152;21.032;2022-11-09T10:55:37;13.40;99.90
18613;DHT22;9436;52.152;21.032;2022-11-09T10:58:19;13.50;99.90
18613;DHT22;9436;52.152;21.032;2022-11-09T11:01:00;13.60;99.90
18613;DHT22;9436;52.152;21.032;2022-11-09T11:03:30;13.60;99.90
18613;DHT22;9436;52.152;21.032;2022-11-09T11:05:59;13.60;99.90
18613;DHT22;9436;52.152;21.032;2022-11-09T11:08:30;13.60;99.90
18613;DHT22;9436;52.152;21.032;2022-11-09T11:11:16;13.50;99.90
18613;DHT22;9436;52.152;21.032;2022-11-09T11:13:44;13.60;99.90
18613;DHT22;9436;52.152;21.032;2022-11-09T11:16:25;13.60;99.90
18613;DHT22;9436;52.152;21.032;2022-11-09T11:18:54;13.60;99.90
18613;DHT22;9436;52.152;21.032;2022-11-09T11:21:23;13.60;99.90
18613;DHT22;9436;52.152;21.032;2022-11-09T11:24:11;13.50;99.90
18613;DHT22;9436;52.152;21.032;2022-11-09T11:26:47;13.60;99.90
18613;DHT22;9436;52.152;21.032;2022-11-09T11:29:37;13.70;99.90
18613;DHT22;9436;52.152;21.032;2022-11-09T11:32:09;13.80;99.90
18613;DHT22;9436;52.152;21.032;2022-11-09T11:34:39;13.90;99.90
18613;DHT22;9436;52.152;21.032;2022-11-09T11:37:19;14.00;99.90
18613;DHT22;9436;52.152;21.032;2022-11-09T11:39:58;14.00;99.90
18613;DHT22;9436;52.152;21.032;2022-11-09T11:42:55;14.00;99.90
18613;DHT22;9436;52.152;21.032;2022-11-09T11:45:28;14.30;99.90
18613;DHT22;9436;52.152;21.032;2022-11-09T11:48:20;14.50;99.90
18613;DHT22;9436;52.152;21.032;2022-11-09T11:51:00;14.40;99.90
18613;DHT22;9436;52.152;21.032;2022-11-09T11:53:44;14.30;99.90
18613;DHT22;9436;52.152;21.032;2022-11-09T11:56:20;14.10;99.90
18613;DHT22;9436;52.152;21.032;2022-11-09T11:58:58;14.10;99.90
18613;DHT22;9436;52.152;21.032;2022-11-09T12:01:42;14.10;99.90
18613;DHT22;9436;52.152;21.032;2022-11-09T12:04:24;14.10;99.90
18613;DHT22;9436;52.152;21.032;2022-11-09T12:07:19;14.10;99.90
18613;DHT22;9436;52.152;21.032;2022-11-09T12:10:01;14.10;99.90
18613;DHT22;9436;52.152;21.032;2022-11-09T12:12:38;14.10;99.90
18613;DHT22;9436;52.152;21.032;2022-11-09T12:15:39;14.20;99.90
18613;DHT22;9436;52.152;21.032;2022-11-09T12:18:19;14.20;99.90
18613;DHT22;9436;52.152;21.032;2022-11-09T12:21:01;14.30;99.90
18613;DHT22;9436;52.152;21.032;2022-11-09T12:23:48;14.30;99.90
18613;DHT22;9436;52.152;21.032;2022-11-09T12:26:23;14.40;99.90
18613;DHT22;9436;52.152;21.032;2022-11-09T12:29:12;14.50;99.90
18613;DHT22;9436;52.152;21.032;2022-11-09T12:31:53;14.50;99.90
18613;DHT22;9436;52.152;21.032;2022-11-09T12:34:26;14.50;99.90
18613;DHT22;9436;52.152;21.032;2022-11-09T12:36:58;14.50;99.90
18613;DHT22;9436;52.152;21.032;2022-11-09T12:39:31;14.50;99.90
18613;DHT22;9436;52.152;21.032;2022-11-09T12:42:04;14.50;99.90
18613;DHT22;9436;52.152;21.032;2022-11-09T12:44:35;14.40;99.90
18613;DHT22;9436;52.152;21.032;2022-11-09T12:47:09;14.40;99.90
18613;DHT22;9436;52.152;21.032;2022-11-09T12:49:41;14.30;99.90
18613;DHT22;9436;52.152;21.032;2022-11-09T12:52:11;14.30;99.90
18613;DHT22;9436;52.152;21.032;2022-11-09T12:54:44;14.20;99.90
18613;DHT22;9436;52.152;21.032;2022-11-09T12:57:15;14.20;99.90
18613;DHT22;9436;52.152;21.032;2022-11-09T12:59:47;14.20;99.90
18613;DHT22;9436;52.152;21.032;2022-11-09T13:02:27;14.20;99.90
18613;DHT22;9436;52.152;21.032;2022-11-09T13:04:56;14.10;99.90
18613;DHT22;9436;52.152;21.032;2022-11-09T13:07:41;14.20;99.90
18613;DHT22;9436;52.152;21.032;2022-11-09T13:10:24;14.20;99.90
18613;DHT22;9436;52.152;21.032;2022-11-09T13:13:01;14.10;99.90
18613;DHT22;9436;52.152;21.032;2022-11-09T13:15:30;14.10;99.90
18613;DHT22;9436;52.152;21.032;2022-11-09T13:18:04;14.10;99.90
18613;DHT22;9436;52.152;21.032;2022-11-09T13:20:43;14.00;99.90
18613;DHT22;9436;52.152;21.032;2022-11-09T13:23:30;14.00;99.90
18613;DHT22;9436;52.152;21.032;2022-11-09T13:25:59;13.90;99.90
18613;DHT22;9436;52.152;21.032;2022-11-09T13:28:43;13.90;99.90
18613;DHT22;9436;52.152;21.032;2022-11-09T13:31:12;14.00;99.90
18613;DHT22;9436;52.152;21.032;2022-11-09T13:33:39;13.90;99.90
18613;DHT22;9436;52.152;21.032;2022-11-09T13:36:16;13.90;99.90
18613;DHT22;9436;52.152;21.032;2022-11-09T13:38:44;13.80;99.90
18613;DHT22;9436;52.152;21.032;2022-11-09T13:41:41;13.80;99.90
18613;DHT22;9436;52.152;21.032;2022-11-09T13:44:23;13.80;99.90
18613;DHT22;9436;52.152;21.032;2022-11-09T13:46:51;13.70;99.90
18613;DHT22;9436;52.152;21.032;2022-11-09T13:49:45;13.70;99.90
18613;DHT22;9436;52.152;21.032;2022-11-09T13:52:47;13.70;99.90
18613;DHT22;9436;52.152;21.032;2022-11-09T13:55:23;13.70;99.90
18613;DHT22;9436;52.152;21.032;2022-11-09T13:57:53;13.70;99.90
18613;DHT22;9436;52.152;21.032;2022-11-09T14:00:23;13.70;99.90
18613;DHT22;9436;52.152;21.032;2022-11-09T14:02:54;13.70;99.90
18613;DHT22;9436;52.152;21.032;2022-11-09T14:05:27;13.80;99.90
18613;DHT22;9436;52.152;21.032;2022-11-09T14:07:54;13.70;99.90
18613;DHT22;9436;52.152;21.032;2022-11-09T14:16:27;14.00;99.90
18613;DHT22;9436;52.152;21.032;2022-11-09T14:19:05;14.00;99.90
18613;DHT22;9436;52.152;21.032;2022-11-09T14:21:42;13.90;99.90
18613;DHT22;9436;52.152;21.032;2022-11-09T14:24:15;13.80;99.90
18613;DHT22;9436;52.152;21.032;2022-11-09T14:26:59;13.90;99.90
18613;DHT22;9436;52.152;21.032;2022-11-09T14:29:27;14.00;99.90
18613;DHT22;9436;52.152;21.032;2022-11-09T14:32:00;14.00;99.90
18613;DHT22;9436;52.152;21.032;2022-11-09T14:34:27;14.00;99.90
18613;DHT22;9436;52.152;21.032;2022-11-09T14:36:55;14.00;99.90
18613;DHT22;9436;52.152;21.032;2022-11-09T14:39:31;13.90;99.90
18613;DHT22;9436;52.152;21.032;2022-11-09T14:41:59;13.90;99.90
18613;DHT22;9436;52.152;21.032;2022-11-09T14:44:28;14.00;99.90
18613;DHT22;9436;52.152;21.032;2022-11-09T14:46:56;13.90;99.90
18613;DHT22;9436;52.152;21.032;2022-11-09T14:49:25;14.00;99.90
18613;DHT22;9436;52.152;21.032;2022-11-09T14:51:53;13.80;99.90
18613;DHT22;9436;52.152;21.032;2022-11-09T14:54:23;13.60;99.90
18613;DHT22;9436;52.152;21.032;2022-11-09T14:56:52;13.60;99.90
18613;DHT22;9436;52.152;21.032;2022-11-09T14:59:27;13.70;99.90
18613;DHT22;9436;52.152;21.032;2022-11-09T15:01:58;13.70;99.90
18613;DHT22;9436;52.152;21.032;2022-11-09T15:04:27;13.90;99.90
18613;DHT22;9436;52.152;21.032;2022-11-09T15:06:55;14.20;99.90
18613;DHT22;9436;52.152;21.032;2022-11-09T15:09:31;14.50;99.90
18613;DHT22;9436;52.152;21.032;2022-11-09T15:11:59;14.80;99.90
18613;DHT22;9436;52.152;21.032;2022-11-09T15:14:30;14.90;99.90
18613;DHT22;9436;52.152;21.032;2022-11-09T15:17:09;15.20;99.90
18613;DHT22;9436;52.152;21.032;2022-11-09T15:19:48;15.30;99.90
18613;DHT22;9436;52.152;21.032;2022-11-09T15:22:40;15.30;99.90
18613;DHT22;9436;52.152;21.032;2022-11-09T15:25:19;15.20;99.90
18613;DHT22;9436;52.152;21.032;2022-11-09T15:27:57;15.20;99.90
18613;DHT22;9436;52.152;21.032;2022-11-09T15:30:27;15.30;99.90
18613;DHT22;9436;52.152;21.032;2022-11-09T15:32:55;15.20;99.90
18613;DHT22;9436;52.152;21.032;2022-11-09T15:35:24;14.70;99.90
18613;DHT22;9436;52.152;21.032;2022-11-09T15:37:52;14.60;99.90
18613;DHT22;9436;52.152;21.032;2022-11-09T15:40:23;14.30;99.90
18613;DHT22;9436;52.152;21.032;2022-11-09T15:42:50;14.10;99.90
18613;DHT22;9436;52.152;21.032;2022-11-09T15:45:18;14.00;99.90
18613;DHT22;9436;52.152;21.032;2022-11-09T15:47:50;14.20;99.90
18613;DHT22;9436;52.152;21.032;2022-11-09T15:50:19;14.40;99.90
18613;DHT22;9436;52.152;21.032;2022-11-09T15:52:49;14.60;99.90
18613;DHT22;9436;52.152;21.032;2022-11-09T15:55:18;14.70;99.90
18613;DHT22;9436;52.152;21.032;2022-11-09T15:57:46;14.70;99.90
18613;DHT22;9436;52.152;21.032;2022-11-09T16:00:16;14.70;99.90
18613;DHT22;9436;52.152;21.032;2022-11-09T16:02:43;14.60;99.90
18613;DHT22;9436;52.152;21.032;2022-11-09T16:05:11;14.60;99.90